sensor_id;sensor_type;location;lat;lon;timestamp;P1;durP1;ratioP1;P2;durP2;ratioP2
68089;SDS011;54880;50.986;6.990;2023-04-25T00:01:18;11.67;;;3.67;;
68089;SDS011;54880;50.986;6.990;2023-04-25T00:03:44;14.17;;;3.70;;
68089;SDS011;54880;50.986;6.990;2023-04-25T00:06:09;15.33;;;4.27;;
68089;SDS011;54880;50.986;6.990;2023-04-25T00:08:34;15.20;;;4.20;;
68089;SDS011;54880;50.986;6.990;2023-04-25T00:11:00;18.47;;;4.60;;
68089;SDS011;54880;50.986;6.990;2023-04-25T00:13:25;15.85;;;4.65;;
68089;SDS011;54880;50.986;6.990;2023-04-25T00:15:51;16.50;;;4.53;;
68089;SDS011;54880;50.986;6.990;2023-04-25T00:18:18;13.88;;;3.60;;
68089;SDS011;54880;50.986;6.990;2023-04-25T00:20:44;12.20;;;4.22;;
68089;SDS011;54880;50.986;6.990;2023-04-25T00:23:12;13.77;;;4.20;;
68089;SDS011;54880;50.986;6.990;2023-04-25T00:25:37;13.27;;;4.40;;
68089;SDS011;54880;50.986;6.990;2023-04-25T00:28:03;16.47;;;4.40;;
68089;SDS011;54880;50.986;6.990;2023-04-25T00:30:28;16.20;;;4.38;;
68089;SDS011;54880;50.986;6.990;2023-04-25T00:32:53;12.80;;;4.32;;
68089;SDS011;54880;50.986;6.990;2023-04-25T00:35:18;15.95;;;3.97;;
68089;SDS011;54880;50.986;6.990;2023-04-25T00:37:44;16.13;;;4.15;;
68089;SDS011;54880;50.986;6.990;2023-04-25T00:40:10;16.57;;;4.50;;
68089;SDS011;54880;50.986;6.990;2023-04-25T00:42:36;21.00;;;4.85;;
68089;SDS011;54880;50.986;6.990;2023-04-25T00:45:02;21.50;;;4.13;;
68089;SDS011;54880;50.986;6.990;2023-04-25T00:47:29;16.30;;;4.30;;
68089;SDS011;54880;50.986;6.990;2023-04-25T00:49:54;15.60;;;4.63;;
68089;SDS011;54880;50.986;6.990;2023-04-25T00:52:20;17.03;;;4.13;;
68089;SDS011;54880;50.986;6.990;2023-04-25T00:54:45;19.03;;;4.40;;
68089;SDS011;54880;50.986;6.990;2023-04-25T00:57:10;15.60;;;4.07;;
68089;SDS011;54880;50.986;6.990;2023-04-25T00:59:36;19.00;;;4.20;;
68089;SDS011;54880;50.986;6.990;2023-04-25T01:02:02;19.08;;;4.38;;
68089;SDS011;54880;50.986;6.990;2023-04-25T01:04:27;11.57;;;4.17;;
68089;SDS011;54880;50.986;6.990;2023-04-25T01:06:53;11.23;;;3.83;;
68089;SDS011;54880;50.986;6.990;2023-04-25T01:09:19;15.60;;;4.23;;
68089;SDS011;54880;50.986;6.990;2023-04-25T01:11:44;13.57;;;4.10;;
68089;SDS011;54880;50.986;6.990;2023-04-25T01:14:10;15.57;;;4.20;;
68089;SDS011;54880;50.986;6.990;2023-04-25T01:16:35;14.60;;;4.83;;
68089;SDS011;54880;50.986;6.990;2023-04-25T01:19:05;10.97;;;3.63;;
68089;SDS011;54880;50.986;6.990;2023-04-25T01:21:33;12.23;;;3.85;;
68089;SDS011;54880;50.986;6.990;2023-04-25T01:23:59;16.77;;;4.10;;
68089;SDS011;54880;50.986;6.990;2023-04-25T01:26:24;13.57;;;3.85;;
68089;SDS011;54880;50.986;6.990;2023-04-25T01:28:50;14.80;;;4.20;;
68089;SDS011;54880;50.986;6.990;2023-04-25T01:31:15;14.17;;;3.80;;
68089;SDS011;54880;50.986;6.990;2023-04-25T01:33:42;14.38;;;3.80;;
68089;SDS011;54880;50.986;6.990;2023-04-25T01:36:08;18.30;;;5.47;;
68089;SDS011;54880;50.986;6.990;2023-04-25T01:38:34;17.77;;;4.20;;
68089;SDS011;54880;50.986;6.990;2023-04-25T01:41:00;15.20;;;4.00;;
68089;SDS011;54880;50.986;6.990;2023-04-25T01:43:26;16.60;;;4.40;;
68089;SDS011;54880;50.986;6.990;2023-04-25T01:45:52;13.48;;;4.32;;
68089;SDS011;54880;50.986;6.990;2023-04-25T01:48:18;15.27;;;4.17;;
68089;SDS011;54880;50.986;6.990;2023-04-25T01:50:45;15.50;;;4.20;;
68089;SDS011;54880;50.986;6.990;2023-04-25T01:53:11;12.45;;;4.20;;
68089;SDS011;54880;50.986;6.990;2023-04-25T01:55:37;15.02;;;4.40;;
68089;SDS011;54880;50.986;6.990;2023-04-25T01:58:10;15.02;;;4.47;;
68089;SDS011;54880;50.986;6.990;2023-04-25T02:00:55;14.05;;;4.18;;
68089;SDS011;54880;50.986;6.990;2023-04-25T02:03:22;14.60;;;4.10;;
68089;SDS011;54880;50.986;6.990;2023-04-25T02:05:48;16.33;;;4.80;;
68089;SDS011;54880;50.986;6.990;2023-04-25T02:08:16;15.40;;;4.30;;
68089;SDS011;54880;50.986;6.990;2023-04-25T02:10:41;19.48;;;4.30;;
68089;SDS011;54880;50.986;6.990;2023-04-25T02:13:16;16.55;;;4.50;;
68089;SDS011;54880;50.986;6.990;2023-04-25T02:16:04;15.30;;;4.32;;
68089;SDS011;54880;50.986;6.990;2023-04-25T02:18:30;19.87;;;4.33;;
68089;SDS011;54880;50.986;6.990;2023-04-25T02:20:58;13.23;;;4.00;;
68089;SDS011;54880;50.986;6.990;2023-04-25T02:23:24;14.23;;;4.03;;
68089;SDS011;54880;50.986;6.990;2023-04-25T02:25:49;16.70;;;4.38;;
68089;SDS011;54880;50.986;6.990;2023-04-25T02:28:15;14.17;;;4.53;;
68089;SDS011;54880;50.986;6.990;2023-04-25T02:30:40;18.70;;;3.83;;
68089;SDS011;54880;50.986;6.990;2023-04-25T02:33:05;13.67;;;3.93;;
68089;SDS011;54880;50.986;6.990;2023-04-25T02:35:31;15.30;;;4.33;;
68089;SDS011;54880;50.986;6.990;2023-04-25T02:37:56;18.70;;;4.35;;
68089;SDS011;54880;50.986;6.990;2023-04-25T02:40:21;11.93;;;3.80;;
68089;SDS011;54880;50.986;6.990;2023-04-25T02:42:47;18.83;;;5.37;;
68089;SDS011;54880;50.986;6.990;2023-04-25T02:45:12;13.47;;;3.53;;
68089;SDS011;54880;50.986;6.990;2023-04-25T02:47:37;12.47;;;3.73;;
68089;SDS011;54880;50.986;6.990;2023-04-25T02:50:03;14.67;;;3.83;;
68089;SDS011;54880;50.986;6.990;2023-04-25T02:52:28;12.33;;;3.83;;
68089;SDS011;54880;50.986;6.990;2023-04-25T02:55:01;10.43;;;3.30;;
68089;SDS011;54880;50.986;6.990;2023-04-25T02:57:28;14.80;;;3.53;;
68089;SDS011;54880;50.986;6.990;2023-04-25T02:59:53;14.03;;;3.93;;
68089;SDS011;54880;50.986;6.990;2023-04-25T03:02:19;13.47;;;4.10;;
68089;SDS011;54880;50.986;6.990;2023-04-25T03:04:44;12.03;;;4.10;;
68089;SDS011;54880;50.986;6.990;2023-04-25T03:07:10;11.98;;;3.70;;
68089;SDS011;54880;50.986;6.990;2023-04-25T03:09:35;11.33;;;3.73;;
68089;SDS011;54880;50.986;6.990;2023-04-25T03:12:01;11.73;;;4.00;;
68089;SDS011;54880;50.986;6.990;2023-04-25T03:14:27;9.63;;;3.28;;
68089;SDS011;54880;50.986;6.990;2023-04-25T03:16:53;8.13;;;3.20;;
68089;SDS011;54880;50.986;6.990;2023-04-25T03:19:18;11.20;;;3.30;;
68089;SDS011;54880;50.986;6.990;2023-04-25T03:21:44;7.47;;;2.90;;
68089;SDS011;54880;50.986;6.990;2023-04-25T03:24:11;9.37;;;2.77;;
68089;SDS011;54880;50.986;6.990;2023-04-25T03:26:36;11.77;;;3.30;;
68089;SDS011;54880;50.986;6.990;2023-04-25T03:29:02;10.60;;;2.80;;
68089;SDS011;54880;50.986;6.990;2023-04-25T03:31:27;11.93;;;3.07;;
68089;SDS011;54880;50.986;6.990;2023-04-25T03:33:52;7.87;;;2.90;;
68089;SDS011;54880;50.986;6.990;2023-04-25T03:36:19;10.10;;;3.10;;
68089;SDS011;54880;50.986;6.990;2023-04-25T03:38:45;10.93;;;3.00;;
68089;SDS011;54880;50.986;6.990;2023-04-25T03:41:12;10.77;;;3.15;;
68089;SDS011;54880;50.986;6.990;2023-04-25T03:43:44;9.23;;;3.03;;
68089;SDS011;54880;50.986;6.990;2023-04-25T03:46:11;9.52;;;3.00;;
68089;SDS011;54880;50.986;6.990;2023-04-25T03:48:38;13.70;;;2.88;;
68089;SDS011;54880;50.986;6.990;2023-04-25T03:51:03;12.40;;;2.93;;
68089;SDS011;54880;50.986;6.990;2023-04-25T03:53:30;13.05;;;3.30;;
68089;SDS011;54880;50.986;6.990;2023-04-25T03:56:16;11.00;;;3.40;;
68089;SDS011;54880;50.986;6.990;2023-04-25T03:58:44;19.60;;;4.93;;
68089;SDS011;54880;50.986;6.990;2023-04-25T04:01:09;12.47;;;3.87;;
68089;SDS011;54880;50.986;6.990;2023-04-25T04:03:37;13.60;;;3.90;;
68089;SDS011;54880;50.986;6.990;2023-04-25T04:06:03;15.23;;;3.93;;
68089;SDS011;54880;50.986;6.990;2023-04-25T04:08:30;12.63;;;4.50;;
68089;SDS011;54880;50.986;6.990;2023-04-25T04:10:56;15.93;;;4.82;;
68089;SDS011;54880;50.986;6.990;2023-04-25T04:13:22;21.40;;;4.45;;
68089;SDS011;54880;50.986;6.990;2023-04-25T04:15:47;17.23;;;4.10;;
68089;SDS011;54880;50.986;6.990;2023-04-25T04:18:13;11.60;;;4.30;;
68089;SDS011;54880;50.986;6.990;2023-04-25T04:20:38;14.87;;;4.17;;
68089;SDS011;54880;50.986;6.990;2023-04-25T04:23:05;15.88;;;4.55;;
68089;SDS011;54880;50.986;6.990;2023-04-25T04:25:31;12.00;;;3.77;;
68089;SDS011;54880;50.986;6.990;2023-04-25T04:28:19;15.33;;;4.23;;
68089;SDS011;54880;50.986;6.990;2023-04-25T04:30:53;12.93;;;4.32;;
68089;SDS011;54880;50.986;6.990;2023-04-25T04:33:18;18.83;;;5.40;;
68089;SDS011;54880;50.986;6.990;2023-04-25T04:35:45;14.45;;;4.82;;
68089;SDS011;54880;50.986;6.990;2023-04-25T04:38:12;16.17;;;4.40;;
68089;SDS011;54880;50.986;6.990;2023-04-25T04:40:40;16.00;;;4.20;;
68089;SDS011;54880;50.986;6.990;2023-04-25T04:43:11;16.07;;;4.10;;
68089;SDS011;54880;50.986;6.990;2023-04-25T04:46:06;21.02;;;5.20;;
68089;SDS011;54880;50.986;6.990;2023-04-25T04:48:43;14.80;;;4.55;;
68089;SDS011;54880;50.986;6.990;2023-04-25T04:51:32;17.75;;;4.45;;
68089;SDS011;54880;50.986;6.990;2023-04-25T04:54:04;13.32;;;4.22;;
68089;SDS011;54880;50.986;6.990;2023-04-25T04:56:48;15.60;;;4.10;;
68089;SDS011;54880;50.986;6.990;2023-04-25T04:59:26;17.27;;;4.38;;
68089;SDS011;54880;50.986;6.990;2023-04-25T05:02:26;16.95;;;4.60;;
68089;SDS011;54880;50.986;6.990;2023-04-25T05:05:30;18.50;;;5.28;;
68089;SDS011;54880;50.986;6.990;2023-04-25T05:08:14;14.65;;;4.47;;
68089;SDS011;54880;50.986;6.990;2023-04-25T05:11:18;16.83;;;4.30;;
68089;SDS011;54880;50.986;6.990;2023-04-25T05:14:10;13.73;;;3.90;;
68089;SDS011;54880;50.986;6.990;2023-04-25T05:16:53;15.15;;;4.82;;
68089;SDS011;54880;50.986;6.990;2023-04-25T05:19:31;15.13;;;4.18;;
68089;SDS011;54880;50.986;6.990;2023-04-25T05:22:15;13.32;;;4.28;;
68089;SDS011;54880;50.986;6.990;2023-04-25T05:25:08;14.77;;;3.90;;
68089;SDS011;54880;50.986;6.990;2023-04-25T05:27:53;15.32;;;4.40;;
68089;SDS011;54880;50.986;6.990;2023-04-25T05:30:41;18.83;;;4.75;;
68089;SDS011;54880;50.986;6.990;2023-04-25T05:33:14;16.30;;;4.90;;
68089;SDS011;54880;50.986;6.990;2023-04-25T05:35:41;14.52;;;4.13;;
68089;SDS011;54880;50.986;6.990;2023-04-25T05:38:06;14.13;;;4.73;;
68089;SDS011;54880;50.986;6.990;2023-04-25T05:40:51;18.52;;;4.88;;
68089;SDS011;54880;50.986;6.990;2023-04-25T05:43:36;15.47;;;5.03;;
68089;SDS011;54880;50.986;6.990;2023-04-25T05:46:19;17.13;;;4.70;;
68089;SDS011;54880;50.986;6.990;2023-04-25T05:49:04;16.25;;;4.70;;
68089;SDS011;54880;50.986;6.990;2023-04-25T05:51:56;16.63;;;4.60;;
68089;SDS011;54880;50.986;6.990;2023-04-25T05:54:38;19.85;;;4.82;;
68089;SDS011;54880;50.986;6.990;2023-04-25T05:57:03;17.77;;;4.60;;
68089;SDS011;54880;50.986;6.990;2023-04-25T05:59:29;17.83;;;5.03;;
68089;SDS011;54880;50.986;6.990;2023-04-25T06:01:55;17.40;;;4.97;;
68089;SDS011;54880;50.986;6.990;2023-04-25T06:04:21;15.38;;;4.00;;
68089;SDS011;54880;50.986;6.990;2023-04-25T06:06:46;17.60;;;4.13;;
68089;SDS011;54880;50.986;6.990;2023-04-25T06:09:11;17.73;;;4.33;;
68089;SDS011;54880;50.986;6.990;2023-04-25T06:11:37;16.23;;;4.50;;
68089;SDS011;54880;50.986;6.990;2023-04-25T06:14:02;18.97;;;5.13;;
68089;SDS011;54880;50.986;6.990;2023-04-25T06:16:28;13.90;;;4.25;;
68089;SDS011;54880;50.986;6.990;2023-04-25T06:18:54;19.57;;;3.63;;
68089;SDS011;54880;50.986;6.990;2023-04-25T06:21:19;18.63;;;4.23;;
68089;SDS011;54880;50.986;6.990;2023-04-25T06:23:44;16.20;;;3.63;;
68089;SDS011;54880;50.986;6.990;2023-04-25T06:26:17;17.23;;;3.50;;
68089;SDS011;54880;50.986;6.990;2023-04-25T06:28:44;16.15;;;3.80;;
68089;SDS011;54880;50.986;6.990;2023-04-25T06:31:10;19.77;;;3.97;;
68089;SDS011;54880;50.986;6.990;2023-04-25T06:33:35;15.83;;;3.97;;
68089;SDS011;54880;50.986;6.990;2023-04-25T06:36:01;16.13;;;3.50;;
68089;SDS011;54880;50.986;6.990;2023-04-25T06:38:27;18.13;;;3.78;;
68089;SDS011;54880;50.986;6.990;2023-04-25T06:40:55;14.97;;;3.50;;
68089;SDS011;54880;50.986;6.990;2023-04-25T06:43:20;17.00;;;4.50;;
68089;SDS011;54880;50.986;6.990;2023-04-25T06:45:54;18.23;;;3.78;;
68089;SDS011;54880;50.986;6.990;2023-04-25T06:48:21;17.13;;;3.72;;
68089;SDS011;54880;50.986;6.990;2023-04-25T06:50:47;15.67;;;3.50;;
68089;SDS011;54880;50.986;6.990;2023-04-25T06:53:12;15.37;;;3.50;;
68089;SDS011;54880;50.986;6.990;2023-04-25T06:55:39;12.52;;;3.38;;
68089;SDS011;54880;50.986;6.990;2023-04-25T06:58:13;17.27;;;3.88;;
68089;SDS011;54880;50.986;6.990;2023-04-25T07:00:57;20.67;;;3.70;;
68089;SDS011;54880;50.986;6.990;2023-04-25T07:03:24;17.85;;;3.20;;
68089;SDS011;54880;50.986;6.990;2023-04-25T07:05:54;14.87;;;3.00;;
68089;SDS011;54880;50.986;6.990;2023-04-25T07:08:20;13.10;;;3.28;;
68089;SDS011;54880;50.986;6.990;2023-04-25T07:10:46;19.48;;;3.38;;
68089;SDS011;54880;50.986;6.990;2023-04-25T07:13:11;17.73;;;3.97;;
68089;SDS011;54880;50.986;6.990;2023-04-25T07:15:37;16.63;;;3.37;;
68089;SDS011;54880;50.986;6.990;2023-04-25T07:18:02;14.73;;;3.23;;
68089;SDS011;54880;50.986;6.990;2023-04-25T07:20:28;21.53;;;3.20;;
68089;SDS011;54880;50.986;6.990;2023-04-25T07:22:54;17.67;;;3.20;;
68089;SDS011;54880;50.986;6.990;2023-04-25T07:25:20;13.25;;;2.72;;
68089;SDS011;54880;50.986;6.990;2023-04-25T07:27:46;21.38;;;3.20;;
68089;SDS011;54880;50.986;6.990;2023-04-25T07:30:15;14.60;;;3.33;;
68089;SDS011;54880;50.986;6.990;2023-04-25T07:32:40;17.93;;;3.37;;
68089;SDS011;54880;50.986;6.990;2023-04-25T07:35:05;16.13;;;3.20;;
68089;SDS011;54880;50.986;6.990;2023-04-25T07:37:32;13.57;;;3.20;;
68089;SDS011;54880;50.986;6.990;2023-04-25T07:40:16;17.20;;;3.20;;
68089;SDS011;54880;50.986;6.990;2023-04-25T07:42:45;14.68;;;3.30;;
68089;SDS011;54880;50.986;6.990;2023-04-25T07:45:15;12.50;;;3.40;;
68089;SDS011;54880;50.986;6.990;2023-04-25T07:47:42;15.73;;;3.17;;
68089;SDS011;54880;50.986;6.990;2023-04-25T07:50:07;11.13;;;3.67;;
68089;SDS011;54880;50.986;6.990;2023-04-25T07:52:33;13.23;;;3.73;;
68089;SDS011;54880;50.986;6.990;2023-04-25T07:55:06;15.35;;;3.50;;
68089;SDS011;54880;50.986;6.990;2023-04-25T07:57:41;16.58;;;3.35;;
68089;SDS011;54880;50.986;6.990;2023-04-25T08:00:07;13.15;;;3.50;;
68089;SDS011;54880;50.986;6.990;2023-04-25T08:02:38;12.85;;;3.28;;
68089;SDS011;54880;50.986;6.990;2023-04-25T08:05:05;17.97;;;3.30;;
68089;SDS011;54880;50.986;6.990;2023-04-25T08:07:33;14.02;;;3.00;;
68089;SDS011;54880;50.986;6.990;2023-04-25T08:10:03;11.43;;;3.17;;
68089;SDS011;54880;50.986;6.990;2023-04-25T08:12:32;12.70;;;3.10;;
68089;SDS011;54880;50.986;6.990;2023-04-25T08:15:00;11.27;;;2.95;;
68089;SDS011;54880;50.986;6.990;2023-04-25T08:17:31;10.50;;;3.00;;
68089;SDS011;54880;50.986;6.990;2023-04-25T08:19:56;14.43;;;3.10;;
68089;SDS011;54880;50.986;6.990;2023-04-25T08:22:26;13.13;;;2.88;;
68089;SDS011;54880;50.986;6.990;2023-04-25T08:25:01;11.75;;;2.78;;
68089;SDS011;54880;50.986;6.990;2023-04-25T08:27:27;15.37;;;2.57;;
68089;SDS011;54880;50.986;6.990;2023-04-25T08:29:52;10.27;;;2.30;;
68089;SDS011;54880;50.986;6.990;2023-04-25T08:32:18;10.48;;;2.63;;
68089;SDS011;54880;50.986;6.990;2023-04-25T08:34:57;10.82;;;2.10;;
68089;SDS011;54880;50.986;6.990;2023-04-25T08:37:22;13.27;;;3.10;;
68089;SDS011;54880;50.986;6.990;2023-04-25T08:40:01;15.13;;;2.83;;
68089;SDS011;54880;50.986;6.990;2023-04-25T08:42:50;13.57;;;2.78;;
68089;SDS011;54880;50.986;6.990;2023-04-25T08:45:17;11.18;;;3.10;;
68089;SDS011;54880;50.986;6.990;2023-04-25T08:47:42;11.67;;;2.80;;
68089;SDS011;54880;50.986;6.990;2023-04-25T08:50:10;12.85;;;2.50;;
68089;SDS011;54880;50.986;6.990;2023-04-25T08:52:37;11.18;;;2.50;;
68089;SDS011;54880;50.986;6.990;2023-04-25T08:55:04;11.30;;;2.50;;
68089;SDS011;54880;50.986;6.990;2023-04-25T08:57:32;13.00;;;2.80;;
68089;SDS011;54880;50.986;6.990;2023-04-25T08:59:58;10.63;;;2.47;;
68089;SDS011;54880;50.986;6.990;2023-04-25T09:02:26;12.73;;;3.35;;
68089;SDS011;54880;50.986;6.990;2023-04-25T09:04:52;14.53;;;3.77;;
68089;SDS011;54880;50.986;6.990;2023-04-25T09:07:19;13.75;;;2.72;;
68089;SDS011;54880;50.986;6.990;2023-04-25T09:09:46;10.82;;;2.85;;
68089;SDS011;54880;50.986;6.990;2023-04-25T09:12:15;17.58;;;2.70;;
68089;SDS011;54880;50.986;6.990;2023-04-25T09:14:40;11.60;;;2.10;;
68089;SDS011;54880;50.986;6.990;2023-04-25T09:17:21;10.80;;;2.97;;
68089;SDS011;54880;50.986;6.990;2023-04-25T09:19:55;9.68;;;2.25;;
68089;SDS011;54880;50.986;6.990;2023-04-25T09:22:30;12.03;;;2.53;;
68089;SDS011;54880;50.986;6.990;2023-04-25T09:24:55;12.18;;;2.60;;
68089;SDS011;54880;50.986;6.990;2023-04-25T09:27:24;8.83;;;2.23;;
68089;SDS011;54880;50.986;6.990;2023-04-25T09:29:59;13.35;;;2.83;;
68089;SDS011;54880;50.986;6.990;2023-04-25T09:32:31;10.80;;;2.65;;
68089;SDS011;54880;50.986;6.990;2023-04-25T09:34:57;13.50;;;2.50;;
68089;SDS011;54880;50.986;6.990;2023-04-25T09:37:23;12.03;;;2.30;;
68089;SDS011;54880;50.986;6.990;2023-04-25T09:40:05;10.70;;;2.08;;
68089;SDS011;54880;50.986;6.990;2023-04-25T09:42:33;9.88;;;2.20;;
68089;SDS011;54880;50.986;6.990;2023-04-25T09:45:00;8.85;;;1.88;;
68089;SDS011;54880;50.986;6.990;2023-04-25T09:47:27;12.47;;;2.60;;
68089;SDS011;54880;50.986;6.990;2023-04-25T09:49:54;8.70;;;2.20;;
68089;SDS011;54880;50.986;6.990;2023-04-25T09:52:23;9.63;;;2.10;;
68089;SDS011;54880;50.986;6.990;2023-04-25T09:55:09;10.05;;;2.00;;
68089;SDS011;54880;50.986;6.990;2023-04-25T09:57:35;9.80;;;2.03;;
68089;SDS011;54880;50.986;6.990;2023-04-25T10:00:01;9.65;;;2.08;;
68089;SDS011;54880;50.986;6.990;2023-04-25T10:02:39;11.88;;;2.60;;
68089;SDS011;54880;50.986;6.990;2023-04-25T10:05:08;8.87;;;1.93;;
68089;SDS011;54880;50.986;6.990;2023-04-25T10:07:39;13.35;;;2.20;;
68089;SDS011;54880;50.986;6.990;2023-04-25T10:10:11;11.85;;;2.65;;
68089;SDS011;54880;50.986;6.990;2023-04-25T10:12:37;7.50;;;1.70;;
68089;SDS011;54880;50.986;6.990;2023-04-25T10:15:04;12.90;;;2.20;;
68089;SDS011;54880;50.986;6.990;2023-04-25T10:17:30;12.83;;;2.17;;
68089;SDS011;54880;50.986;6.990;2023-04-25T10:19:56;12.82;;;2.85;;
68089;SDS011;54880;50.986;6.990;2023-04-25T10:22:37;9.37;;;1.93;;
68089;SDS011;54880;50.986;6.990;2023-04-25T10:25:03;10.00;;;2.10;;
68089;SDS011;54880;50.986;6.990;2023-04-25T10:27:29;8.63;;;1.88;;
68089;SDS011;54880;50.986;6.990;2023-04-25T10:30:05;8.40;;;1.90;;
68089;SDS011;54880;50.986;6.990;2023-04-25T10:32:31;7.57;;;1.83;;
68089;SDS011;54880;50.986;6.990;2023-04-25T10:35:12;8.32;;;2.47;;
68089;SDS011;54880;50.986;6.990;2023-04-25T10:37:38;9.77;;;1.65;;
68089;SDS011;54880;50.986;6.990;2023-04-25T10:40:10;8.93;;;1.57;;
68089;SDS011;54880;50.986;6.990;2023-04-25T10:42:35;9.93;;;2.80;;
68089;SDS011;54880;50.986;6.990;2023-04-25T10:45:06;9.00;;;1.80;;
68089;SDS011;54880;50.986;6.990;2023-04-25T10:47:35;8.50;;;1.77;;
68089;SDS011;54880;50.986;6.990;2023-04-25T10:50:05;7.17;;;1.67;;
68089;SDS011;54880;50.986;6.990;2023-04-25T10:52:32;10.82;;;2.08;;
68089;SDS011;54880;50.986;6.990;2023-04-25T10:54:57;7.10;;;1.73;;
68089;SDS011;54880;50.986;6.990;2023-04-25T11:00:06;10.90;;;1.73;;
68089;SDS011;54880;50.986;6.990;2023-04-25T11:02:32;11.80;;;2.00;;
68089;SDS011;54880;50.986;6.990;2023-04-25T11:05:01;10.68;;;1.70;;
68089;SDS011;54880;50.986;6.990;2023-04-25T11:09:55;11.30;;;1.95;;
68089;SDS011;54880;50.986;6.990;2023-04-25T11:12:21;7.83;;;2.17;;
68089;SDS011;54880;50.986;6.990;2023-04-25T11:14:46;6.00;;;1.53;;
68089;SDS011;54880;50.986;6.990;2023-04-25T11:17:11;7.73;;;1.67;;
68089;SDS011;54880;50.986;6.990;2023-04-25T11:19:36;7.20;;;1.50;;
68089;SDS011;54880;50.986;6.990;2023-04-25T11:22:02;5.80;;;1.50;;
68089;SDS011;54880;50.986;6.990;2023-04-25T11:24:28;9.30;;;2.08;;
68089;SDS011;54880;50.986;6.990;2023-04-25T11:26:53;8.90;;;1.77;;
68089;SDS011;54880;50.986;6.990;2023-04-25T11:29:21;9.00;;;1.60;;
68089;SDS011;54880;50.986;6.990;2023-04-25T11:31:46;8.27;;;1.77;;
68089;SDS011;54880;50.986;6.990;2023-04-25T11:34:16;6.50;;;1.67;;
68089;SDS011;54880;50.986;6.990;2023-04-25T11:36:41;7.68;;;1.70;;
68089;SDS011;54880;50.986;6.990;2023-04-25T11:39:07;8.80;;;1.70;;
68089;SDS011;54880;50.986;6.990;2023-04-25T11:41:32;11.40;;;1.90;;
68089;SDS011;54880;50.986;6.990;2023-04-25T11:43:57;6.87;;;1.90;;
68089;SDS011;54880;50.986;6.990;2023-04-25T11:46:22;9.47;;;1.83;;
68089;SDS011;54880;50.986;6.990;2023-04-25T11:48:48;6.97;;;1.43;;
68089;SDS011;54880;50.986;6.990;2023-04-25T11:51:15;9.57;;;1.75;;
68089;SDS011;54880;50.986;6.990;2023-04-25T11:53:41;8.13;;;1.60;;
68089;SDS011;54880;50.986;6.990;2023-04-25T11:56:09;9.53;;;1.93;;
68089;SDS011;54880;50.986;6.990;2023-04-25T12:01:29;6.40;;;1.70;;
68089;SDS011;54880;50.986;6.990;2023-04-25T12:03:58;7.57;;;1.63;;
68089;SDS011;54880;50.986;6.990;2023-04-25T12:06:27;10.23;;;2.13;;
68089;SDS011;54880;50.986;6.990;2023-04-25T12:09:02;8.73;;;1.77;;
68089;SDS011;54880;50.986;6.990;2023-04-25T12:11:29;6.90;;;2.05;;
68089;SDS011;54880;50.986;6.990;2023-04-25T12:13:54;6.50;;;1.50;;
68089;SDS011;54880;50.986;6.990;2023-04-25T12:16:20;5.93;;;1.50;;
68089;SDS011;54880;50.986;6.990;2023-04-25T12:18:45;5.33;;;1.77;;
68089;SDS011;54880;50.986;6.990;2023-04-25T12:21:10;6.63;;;1.43;;
68089;SDS011;54880;50.986;6.990;2023-04-25T12:23:37;6.83;;;1.43;;
68089;SDS011;54880;50.986;6.990;2023-04-25T12:26:03;7.05;;;1.75;;
68089;SDS011;54880;50.986;6.990;2023-04-25T12:28:28;7.77;;;1.80;;
68089;SDS011;54880;50.986;6.990;2023-04-25T12:31:03;7.33;;;1.77;;
68089;SDS011;54880;50.986;6.990;2023-04-25T12:33:29;7.93;;;1.60;;
68089;SDS011;54880;50.986;6.990;2023-04-25T12:35:55;5.40;;;1.50;;
68089;SDS011;54880;50.986;6.990;2023-04-25T12:38:24;7.23;;;1.57;;
68089;SDS011;54880;50.986;6.990;2023-04-25T12:40:50;10.05;;;2.45;;
68089;SDS011;54880;50.986;6.990;2023-04-25T12:43:16;8.37;;;1.90;;
68089;SDS011;54880;50.986;6.990;2023-04-25T12:45:41;5.70;;;1.60;;
68089;SDS011;54880;50.986;6.990;2023-04-25T12:48:07;8.77;;;1.87;;
68089;SDS011;54880;50.986;6.990;2023-04-25T12:50:32;7.60;;;2.10;;
68089;SDS011;54880;50.986;6.990;2023-04-25T12:52:57;8.60;;;1.93;;
68089;SDS011;54880;50.986;6.990;2023-04-25T12:55:22;9.13;;;2.10;;
68089;SDS011;54880;50.986;6.990;2023-04-25T12:57:47;6.07;;;1.50;;
68089;SDS011;54880;50.986;6.990;2023-04-25T13:00:13;5.83;;;1.60;;
68089;SDS011;54880;50.986;6.990;2023-04-25T13:02:40;6.70;;;1.60;;
68089;SDS011;54880;50.986;6.990;2023-04-25T13:05:05;8.50;;;1.83;;
68089;SDS011;54880;50.986;6.990;2023-04-25T13:07:31;9.27;;;1.70;;
68089;SDS011;54880;50.986;6.990;2023-04-25T13:09:56;6.30;;;1.43;;
68089;SDS011;54880;50.986;6.990;2023-04-25T13:12:21;7.67;;;1.60;;
68089;SDS011;54880;50.986;6.990;2023-04-25T13:14:46;8.23;;;1.40;;
68089;SDS011;54880;50.986;6.990;2023-04-25T13:17:12;4.70;;;1.30;;
68089;SDS011;54880;50.986;6.990;2023-04-25T13:19:37;5.67;;;1.60;;
68089;SDS011;54880;50.986;6.990;2023-04-25T13:22:03;7.77;;;1.60;;
68089;SDS011;54880;50.986;6.990;2023-04-25T13:24:29;5.00;;;1.35;;
68089;SDS011;54880;50.986;6.990;2023-04-25T13:26:54;8.30;;;1.63;;
68089;SDS011;54880;50.986;6.990;2023-04-25T13:29:20;7.87;;;1.60;;
68089;SDS011;54880;50.986;6.990;2023-04-25T13:31:45;5.67;;;1.57;;
68089;SDS011;54880;50.986;6.990;2023-04-25T13:34:10;6.63;;;1.70;;
68089;SDS011;54880;50.986;6.990;2023-04-25T13:36:37;10.25;;;1.50;;
68089;SDS011;54880;50.986;6.990;2023-04-25T13:39:03;5.97;;;1.53;;
68089;SDS011;54880;50.986;6.990;2023-04-25T13:41:29;5.18;;;1.33;;
68089;SDS011;54880;50.986;6.990;2023-04-25T13:43:54;6.20;;;1.60;;
68089;SDS011;54880;50.986;6.990;2023-04-25T13:46:20;8.13;;;1.90;;
68089;SDS011;54880;50.986;6.990;2023-04-25T13:48:45;10.27;;;2.47;;
68089;SDS011;54880;50.986;6.990;2023-04-25T13:51:14;8.32;;;2.22;;
68089;SDS011;54880;50.986;6.990;2023-04-25T13:53:39;9.80;;;2.40;;
68089;SDS011;54880;50.986;6.990;2023-04-25T13:56:04;7.47;;;2.17;;
68089;SDS011;54880;50.986;6.990;2023-04-25T13:58:30;8.43;;;2.00;;
68089;SDS011;54880;50.986;6.990;2023-04-25T14:00:55;8.47;;;2.13;;
68089;SDS011;54880;50.986;6.990;2023-04-25T14:03:21;9.30;;;2.53;;
68089;SDS011;54880;50.986;6.990;2023-04-25T14:05:46;7.90;;;2.30;;
68089;SDS011;54880;50.986;6.990;2023-04-25T14:08:11;10.00;;;2.70;;
68089;SDS011;54880;50.986;6.990;2023-04-25T14:10:37;9.07;;;2.33;;
68089;SDS011;54880;50.986;6.990;2023-04-25T14:13:02;7.87;;;2.30;;
68089;SDS011;54880;50.986;6.990;2023-04-25T14:15:28;8.77;;;2.30;;
68089;SDS011;54880;50.986;6.990;2023-04-25T14:17:53;6.50;;;2.20;;
68089;SDS011;54880;50.986;6.990;2023-04-25T14:20:19;7.00;;;2.30;;
68089;SDS011;54880;50.986;6.990;2023-04-25T14:22:46;7.90;;;2.22;;
68089;SDS011;54880;50.986;6.990;2023-04-25T14:25:11;8.90;;;1.97;;
68089;SDS011;54880;50.986;6.990;2023-04-25T14:27:36;7.23;;;1.90;;
68089;SDS011;54880;50.986;6.990;2023-04-25T14:30:02;9.50;;;2.30;;
68089;SDS011;54880;50.986;6.990;2023-04-25T14:32:27;11.07;;;2.00;;
68089;SDS011;54880;50.986;6.990;2023-04-25T14:34:52;7.20;;;1.77;;
68089;SDS011;54880;50.986;6.990;2023-04-25T14:37:17;7.30;;;1.50;;
68089;SDS011;54880;50.986;6.990;2023-04-25T14:39:43;7.00;;;1.33;;
68089;SDS011;54880;50.986;6.990;2023-04-25T14:42:08;6.20;;;1.60;;
68089;SDS011;54880;50.986;6.990;2023-04-25T14:44:33;7.43;;;1.43;;
68089;SDS011;54880;50.986;6.990;2023-04-25T14:46:58;5.13;;;1.20;;
68089;SDS011;54880;50.986;6.990;2023-04-25T14:49:24;6.13;;;1.37;;
68089;SDS011;54880;50.986;6.990;2023-04-25T14:51:49;7.27;;;1.40;;
68089;SDS011;54880;50.986;6.990;2023-04-25T14:54:15;6.30;;;1.33;;